createdAt,value
2017-09-03T00:00:58.821Z,6.57
2017-09-03T00:03:26.564Z,6.50
2017-09-03T00:05:54.109Z,6.47
2017-09-03T00:08:21.902Z,5.97
2017-09-03T00:10:49.647Z,6.47
2017-09-03T00:13:17.507Z,7.63
2017-09-03T00:15:45.247Z,6.23
2017-09-03T00:18:13.096Z,5.90
2017-09-03T00:20:40.886Z,6.60
2017-09-03T00:23:08.657Z,6.60
2017-09-03T00:25:36.286Z,5.87
2017-09-03T00:28:04.072Z,5.70
2017-09-03T00:30:31.832Z,5.90
2017-09-03T00:32:59.468Z,6.03
2017-09-03T00:35:27.224Z,6.20
2017-09-03T00:37:55.050Z,6.43
2017-09-03T00:40:22.851Z,6.23
2017-09-03T00:42:50.572Z,5.77
2017-09-03T00:45:18.374Z,6.27
2017-09-03T00:47:46.118Z,6.27
2017-09-03T00:50:13.893Z,6.77
2017-09-03T00:52:41.559Z,6.10
2017-09-03T00:55:09.037Z,6.10
2017-09-03T00:57:36.808Z,5.97
2017-09-03T01:00:04.599Z,6.27
2017-09-03T01:02:32.196Z,5.50
2017-09-03T01:04:59.884Z,5.27
2017-09-03T01:07:27.333Z,5.73
2017-09-03T01:09:54.824Z,5.10
2017-09-03T01:12:22.286Z,5.43
2017-09-03T01:14:49.728Z,5.33
2017-09-03T01:17:17.201Z,6.10
2017-09-03T01:19:44.714Z,5.57
2017-09-03T01:22:12.185Z,5.87
2017-09-03T01:24:39.641Z,6.50
2017-09-03T01:27:07.130Z,7.00
2017-09-03T01:29:34.577Z,6.93
2017-09-03T01:32:02.037Z,6.20
2017-09-03T01:34:29.518Z,6.30
2017-09-03T01:36:56.985Z,5.17
2017-09-03T01:39:24.462Z,5.80
2017-09-03T01:41:51.918Z,7.17
2017-09-03T01:44:19.425Z,5.60
2017-09-03T01:46:46.860Z,6.07
2017-09-03T01:49:14.410Z,6.07
2017-09-03T01:51:41.873Z,6.00
2017-09-03T01:54:09.318Z,6.23
2017-09-03T01:56:36.790Z,6.20
2017-09-03T01:59:04.237Z,7.23
2017-09-03T02:01:31.754Z,7.03
2017-09-03T02:03:59.210Z,7.33
2017-09-03T02:06:26.663Z,7.13
2017-09-03T02:08:54.150Z,6.70
2017-09-03T02:11:21.602Z,6.90
2017-09-03T02:13:49.057Z,7.97
2017-09-03T02:16:16.540Z,7.73
2017-09-03T02:18:43.984Z,7.97
2017-09-03T02:21:11.474Z,7.97
2017-09-03T02:23:38.929Z,8.00
2017-09-03T02:26:06.377Z,8.43
2017-09-03T02:28:33.849Z,7.63
2017-09-03T02:31:01.324Z,8.13
2017-09-03T02:33:29.706Z,8.10
2017-09-03T02:35:57.159Z,8.17
2017-09-03T02:38:24.629Z,8.20
2017-09-03T02:40:52.077Z,7.67
2017-09-03T02:43:19.557Z,7.80
2017-09-03T02:45:47.041Z,8.77
2017-09-03T02:48:14.503Z,8.23
2017-09-03T02:50:41.957Z,8.97
2017-09-03T02:53:09.426Z,8.20
2017-09-03T02:55:36.919Z,7.00
2017-09-03T02:58:04.377Z,8.27
2017-09-03T03:00:31.830Z,8.40
2017-09-03T03:02:59.296Z,8.07
2017-09-03T03:05:26.749Z,9.60
2017-09-03T03:07:54.221Z,9.10
2017-09-03T03:10:21.791Z,9.23
2017-09-03T03:12:49.246Z,9.83
2017-09-03T03:15:16.766Z,9.23
2017-09-03T03:17:44.214Z,9.80
2017-09-03T03:20:11.673Z,10.00
2017-09-03T03:22:39.148Z,10.60
2017-09-03T03:25:06.601Z,11.37
2017-09-03T03:27:34.860Z,11.17
2017-09-03T03:30:02.332Z,10.20
2017-09-03T03:32:29.788Z,10.27
2017-09-03T03:34:57.265Z,9.90
2017-09-03T03:37:24.724Z,10.30
2017-09-03T03:39:59.289Z,11.17
2017-09-03T03:42:26.737Z,10.63
2017-09-03T03:44:54.203Z,12.67
2017-09-03T03:47:21.686Z,11.67
2017-09-03T03:49:49.137Z,10.40
2017-09-03T03:52:16.601Z,11.90
2017-09-03T03:54:44.090Z,12.90
2017-09-03T03:57:11.549Z,12.07
2017-09-03T03:59:39.010Z,12.37
2017-09-03T04:02:06.489Z,11.13
2017-09-03T04:04:34.049Z,12.80
2017-09-03T04:07:01.507Z,12.00
2017-09-03T04:09:28.993Z,12.07
2017-09-03T04:11:56.453Z,12.63
2017-09-03T04:14:23.910Z,12.20
2017-09-03T04:16:51.386Z,10.93
2017-09-03T04:19:18.869Z,11.00
2017-09-03T04:21:46.329Z,11.13
2017-09-03T04:24:13.781Z,13.90
2017-09-03T04:26:41.257Z,11.47
2017-09-03T04:29:08.717Z,12.20
2017-09-03T04:31:36.164Z,12.13
2017-09-03T04:34:03.672Z,11.90
2017-09-03T04:36:31.138Z,11.70
2017-09-03T04:38:58.646Z,10.70
2017-09-03T04:41:26.118Z,11.23
2017-09-03T04:43:53.603Z,10.70
2017-09-03T04:46:21.054Z,10.53
2017-09-03T04:48:48.533Z,11.77
2017-09-03T04:51:15.991Z,11.20
2017-09-03T04:53:43.470Z,11.43
2017-09-03T04:56:10.925Z,12.77
2017-09-03T04:58:38.410Z,11.70
2017-09-03T05:01:05.866Z,12.37
2017-09-03T05:03:33.323Z,11.60
2017-09-03T05:06:00.801Z,10.70
2017-09-03T05:08:28.338Z,11.93
2017-09-03T05:10:55.794Z,11.03
2017-09-03T05:13:23.361Z,10.87
2017-09-03T05:15:50.821Z,11.47
2017-09-03T05:18:18.293Z,10.50
2017-09-03T05:20:45.781Z,10.97
2017-09-03T05:23:13.253Z,10.40
2017-09-03T05:25:40.773Z,9.50
2017-09-03T05:28:08.233Z,10.07
2017-09-03T05:30:35.691Z,11.87
2017-09-03T05:33:03.170Z,11.77
2017-09-03T05:35:30.625Z,10.53
2017-09-03T05:37:58.110Z,11.63
2017-09-03T05:40:25.567Z,11.00
2017-09-03T05:42:53.017Z,13.03
2017-09-03T05:45:20.494Z,13.20
2017-09-03T05:47:47.977Z,12.47
2017-09-03T05:50:15.438Z,13.50
2017-09-03T05:52:42.886Z,14.60
2017-09-03T05:55:10.362Z,13.93
2017-09-03T05:57:37.852Z,14.77
2017-09-03T06:00:05.372Z,16.30
2017-09-03T06:02:32.827Z,14.47
2017-09-03T06:05:00.305Z,16.60
2017-09-03T06:07:27.755Z,15.80
2017-09-03T06:09:55.243Z,12.13
2017-09-03T06:12:22.701Z,12.03
2017-09-03T06:14:50.163Z,11.80
2017-09-03T06:17:17.642Z,10.67
2017-09-03T06:19:45.098Z,10.90
2017-09-03T06:22:12.573Z,9.77
2017-09-03T06:24:40.026Z,9.20
2017-09-03T06:27:07.478Z,9.70
2017-09-03T06:29:34.953Z,10.97
2017-09-03T06:32:02.969Z,10.27
2017-09-03T06:34:30.434Z,10.23
2017-09-03T06:36:57.889Z,11.00
2017-09-03T06:39:25.388Z,10.80
2017-09-03T06:41:52.853Z,12.40
2017-09-03T06:44:20.306Z,13.80
2017-09-03T06:46:47.782Z,15.90
2017-09-03T06:49:15.565Z,18.90
2017-09-03T06:51:43.409Z,21.77
2017-09-03T06:54:11.449Z,22.73
2017-09-03T06:56:39.455Z,22.50
2017-09-03T06:59:07.175Z,26.77
2017-09-03T07:01:34.873Z,30.23
2017-09-03T07:04:02.930Z,24.90
2017-09-03T07:06:30.704Z,24.40
2017-09-03T07:08:58.503Z,22.63
2017-09-03T07:11:26.465Z,21.10
2017-09-03T07:13:54.396Z,23.80
2017-09-03T07:16:22.376Z,22.97
2017-09-03T07:18:50.320Z,21.20
2017-09-03T07:21:17.905Z,20.40
2017-09-03T07:23:46.752Z,20.30
2017-09-03T07:26:14.871Z,23.97
2017-09-03T07:28:42.927Z,23.20
2017-09-03T07:31:10.981Z,20.20
2017-09-03T07:33:38.501Z,22.97
2017-09-03T07:36:06.478Z,23.27
2017-09-03T07:38:34.398Z,22.37
2017-09-03T07:41:01.975Z,23.70
2017-09-03T07:43:29.559Z,22.57
2017-09-03T07:45:57.121Z,24.80
2017-09-03T07:48:24.593Z,25.40
2017-09-03T07:50:52.158Z,27.17
2017-09-03T07:53:20.163Z,25.93
2017-09-03T07:55:48.569Z,25.77
2017-09-03T07:58:16.091Z,24.83
2017-09-03T08:00:43.858Z,22.80
2017-09-03T08:03:11.716Z,20.93
2017-09-03T08:05:39.723Z,22.97
2017-09-03T08:08:07.338Z,21.40
2017-09-03T08:10:34.853Z,19.90
2017-09-03T08:13:02.306Z,19.70
2017-09-03T08:15:29.805Z,18.67
2017-09-03T08:17:57.257Z,18.53
2017-09-03T08:20:24.733Z,14.67
2017-09-03T08:22:52.214Z,16.07
2017-09-03T08:25:19.672Z,15.97
2017-09-03T08:27:47.157Z,16.00
2017-09-03T08:30:14.615Z,15.13
2017-09-03T08:32:42.093Z,13.40
2017-09-03T08:35:09.549Z,13.93
2017-09-03T08:37:37.043Z,14.57
2017-09-03T08:40:04.502Z,13.87
2017-09-03T08:42:31.957Z,12.60
2017-09-03T08:44:59.465Z,13.77
2017-09-03T08:47:26.938Z,12.63
2017-09-03T08:49:54.537Z,11.30
2017-09-03T08:52:22.527Z,10.20
2017-09-03T08:54:50.258Z,12.47
2017-09-03T08:57:18.469Z,10.87
2017-09-03T08:59:46.831Z,10.93
2017-09-03T09:02:14.616Z,12.00
2017-09-03T09:04:42.504Z,10.47
2017-09-03T09:07:10.890Z,9.13
2017-09-03T09:09:39.477Z,8.33
2017-09-03T09:12:07.653Z,10.93
2017-09-03T09:14:35.729Z,9.00
2017-09-03T09:17:03.499Z,8.80
2017-09-03T09:19:32.422Z,8.50
2017-09-03T09:22:00.148Z,7.63
2017-09-03T09:24:27.983Z,9.47
2017-09-03T09:26:55.766Z,7.50
2017-09-03T09:29:23.888Z,6.70
2017-09-03T09:31:52.180Z,7.77
2017-09-03T09:34:20.462Z,7.77
2017-09-03T09:36:48.655Z,7.47
2017-09-03T09:39:16.597Z,7.90
2017-09-03T09:41:44.734Z,7.63
2017-09-03T09:44:13.102Z,7.37
2017-09-03T09:46:41.232Z,7.47
2017-09-03T09:49:09.092Z,6.63
2017-09-03T09:51:37.448Z,8.37
2017-09-03T09:54:05.083Z,6.97
2017-09-03T09:56:32.769Z,9.20
2017-09-03T09:59:01.126Z,9.13
2017-09-03T10:01:28.677Z,8.50
2017-09-03T10:03:56.487Z,8.07
2017-09-03T10:06:24.781Z,7.87
2017-09-03T10:08:52.780Z,9.20
2017-09-03T10:11:20.662Z,8.23
2017-09-03T10:13:48.859Z,8.20
2017-09-03T10:16:17.034Z,10.00
2017-09-03T10:18:44.908Z,8.23
2017-09-03T10:21:13.066Z,5.90
2017-09-03T10:23:40.815Z,6.03
2017-09-03T10:26:08.381Z,6.50
2017-09-03T10:28:35.834Z,5.93
2017-09-03T10:31:03.298Z,5.90
2017-09-03T10:33:30.770Z,4.80
2017-09-03T10:35:58.988Z,4.80
2017-09-03T10:38:26.445Z,4.80
2017-09-03T10:40:53.934Z,4.47
2017-09-03T10:43:21.427Z,5.27
2017-09-03T10:45:48.874Z,6.30
2017-09-03T10:48:16.352Z,5.70
2017-09-03T10:50:43.805Z,5.40
2017-09-03T10:53:11.258Z,5.53
2017-09-03T10:55:38.730Z,4.20
2017-09-03T10:58:06.196Z,4.80
2017-09-03T11:00:33.671Z,4.03
2017-09-03T11:03:01.125Z,4.17
2017-09-03T11:05:28.601Z,4.47
2017-09-03T11:07:56.098Z,4.27
2017-09-03T11:10:23.549Z,4.93
2017-09-03T11:12:51.004Z,4.13
2017-09-03T11:15:18.477Z,4.93
2017-09-03T11:17:45.931Z,4.97
2017-09-03T11:20:13.417Z,5.70
2017-09-03T11:22:40.890Z,5.27
2017-09-03T11:25:08.354Z,6.10
2017-09-03T11:27:35.821Z,6.10
2017-09-03T11:30:03.282Z,5.50
2017-09-03T11:32:30.745Z,4.63
2017-09-03T11:34:58.206Z,4.73
2017-09-03T11:37:25.674Z,5.33
2017-09-03T11:39:53.182Z,5.10
2017-09-03T11:42:20.640Z,4.50
2017-09-03T11:44:48.106Z,4.37
2017-09-03T11:47:15.562Z,4.40
2017-09-03T11:49:43.038Z,4.20
2017-09-03T11:52:10.490Z,4.30
2017-09-03T11:54:37.982Z,3.80
2017-09-03T11:57:05.429Z,4.70
2017-09-03T11:59:32.893Z,4.63
2017-09-03T12:02:00.383Z,5.70
2017-09-03T12:04:27.837Z,4.80
2017-09-03T12:06:55.293Z,5.20
2017-09-03T12:09:22.883Z,6.17
2017-09-03T12:11:50.350Z,6.10
2017-09-03T12:14:17.825Z,6.30
2017-09-03T12:16:45.303Z,6.43
2017-09-03T12:19:12.761Z,6.40
2017-09-03T12:21:41.108Z,7.73
2017-09-03T12:24:08.590Z,7.27
2017-09-03T12:26:36.066Z,7.97
2017-09-03T12:29:03.557Z,7.40
2017-09-03T12:31:31.026Z,6.90
2017-09-03T12:33:58.494Z,7.00
2017-09-03T12:36:25.994Z,6.90
2017-09-03T12:38:53.443Z,7.43
2017-09-03T12:41:20.902Z,6.80
2017-09-03T12:43:48.392Z,8.23
2017-09-03T12:46:15.838Z,7.33
2017-09-03T12:48:43.289Z,7.50
2017-09-03T12:51:10.781Z,8.00
2017-09-03T12:53:38.232Z,7.03
2017-09-03T12:56:05.686Z,6.40
2017-09-03T12:58:34.858Z,5.90
2017-09-03T13:01:02.306Z,5.50
2017-09-03T13:03:29.753Z,6.23
2017-09-03T13:05:57.234Z,7.17
2017-09-03T13:08:24.738Z,5.43
2017-09-03T13:10:52.227Z,6.03
2017-09-03T13:13:19.668Z,6.40
2017-09-03T13:15:47.129Z,5.57
2017-09-03T13:18:14.602Z,5.70
2017-09-03T13:20:42.063Z,5.23
2017-09-03T13:23:09.529Z,5.20
2017-09-03T13:25:36.998Z,5.27
2017-09-03T13:28:04.466Z,6.53
2017-09-03T13:30:31.938Z,5.70
2017-09-03T13:32:59.402Z,4.30
2017-09-03T13:35:26.926Z,5.07
2017-09-03T13:37:54.383Z,6.20
2017-09-03T13:40:21.833Z,5.60
2017-09-03T13:42:49.296Z,5.47
2017-09-03T13:45:16.754Z,5.90
2017-09-03T13:47:44.220Z,5.37
2017-09-03T13:50:11.689Z,4.87
2017-09-03T13:52:39.163Z,5.20
2017-09-03T13:55:06.641Z,5.00
2017-09-03T13:57:34.094Z,5.50
2017-09-03T14:00:01.561Z,4.90
2017-09-03T14:02:29.041Z,5.33
2017-09-03T14:04:56.489Z,4.57
2017-09-03T14:07:23.960Z,5.07
2017-09-03T14:09:51.441Z,4.57
2017-09-03T14:12:18.885Z,4.50
2017-09-03T14:14:46.332Z,5.47
2017-09-03T14:17:13.802Z,5.20
2017-09-03T14:19:41.273Z,4.87
2017-09-03T14:22:08.767Z,4.80
2017-09-03T14:24:36.226Z,4.37
2017-09-03T14:27:03.673Z,5.37
2017-09-03T14:29:31.922Z,5.43
2017-09-03T14:31:59.401Z,4.50
2017-09-03T14:34:27.074Z,5.10
2017-09-03T14:36:54.858Z,5.57
2017-09-03T14:39:22.530Z,5.53
2017-09-03T14:41:50.204Z,6.20
2017-09-03T14:44:17.849Z,5.80
2017-09-03T14:46:46.082Z,5.80
2017-09-03T14:49:13.538Z,6.13
2017-09-03T14:51:40.981Z,6.20
2017-09-03T14:54:08.461Z,5.27
2017-09-03T14:56:35.934Z,5.60
2017-09-03T14:59:03.581Z,5.63
2017-09-03T15:01:31.269Z,5.70
2017-09-03T15:03:59.520Z,6.00
2017-09-03T15:06:27.114Z,5.40
2017-09-03T15:08:56.051Z,5.93
2017-09-03T15:11:24.088Z,5.33
2017-09-03T15:13:51.594Z,5.43
2017-09-03T15:16:19.373Z,5.10
2017-09-03T15:18:46.910Z,5.73
2017-09-03T15:21:14.976Z,6.23
2017-09-03T15:23:42.779Z,6.97
2017-09-03T15:26:10.536Z,5.80
2017-09-03T15:28:38.372Z,6.20
2017-09-03T15:31:06.304Z,5.20
2017-09-03T15:33:33.997Z,5.40
2017-09-03T15:36:01.563Z,5.50
2017-09-03T15:38:29.071Z,5.80
2017-09-03T15:40:56.569Z,5.90
2017-09-03T15:43:24.049Z,5.03
2017-09-03T15:45:51.575Z,5.70
2017-09-03T15:48:19.063Z,6.23
2017-09-03T15:50:46.703Z,5.30
2017-09-03T15:53:14.198Z,5.87
2017-09-03T15:55:41.657Z,5.00
2017-09-03T15:58:09.124Z,5.43
2017-09-03T16:00:36.642Z,5.97
2017-09-03T16:03:04.101Z,8.67
2017-09-03T16:05:31.582Z,5.93
2017-09-03T16:07:59.536Z,4.63
2017-09-03T16:10:27.057Z,4.97
2017-09-03T16:12:54.685Z,4.47
2017-09-03T16:15:22.144Z,4.30
2017-09-03T16:17:49.983Z,5.13
2017-09-03T16:20:17.694Z,5.10
2017-09-03T16:22:45.257Z,5.20
2017-09-03T16:25:12.798Z,5.33
2017-09-03T16:27:40.277Z,4.93
2017-09-03T16:30:08.180Z,5.23
2017-09-03T16:32:35.893Z,4.90
2017-09-03T16:35:03.348Z,4.40
2017-09-03T16:37:30.822Z,4.13
2017-09-03T16:39:58.273Z,5.17
2017-09-03T16:42:25.745Z,5.07
2017-09-03T16:44:53.257Z,3.73
2017-09-03T16:47:20.714Z,4.80
2017-09-03T16:49:48.222Z,4.57
2017-09-03T16:52:30.625Z,3.53
2017-09-03T16:54:58.082Z,4.57
2017-09-03T16:57:25.550Z,4.40
2017-09-03T16:59:53.032Z,4.53
2017-09-03T17:02:20.494Z,5.23
2017-09-03T17:04:47.953Z,4.97
2017-09-03T17:07:15.417Z,5.40
2017-09-03T17:09:42.934Z,5.53
2017-09-03T17:12:10.410Z,4.40
2017-09-03T17:14:37.862Z,4.87
2017-09-03T17:17:06.118Z,4.83
2017-09-03T17:19:33.591Z,4.10
2017-09-03T17:22:01.519Z,3.43
2017-09-03T17:24:28.997Z,3.90
2017-09-03T17:26:56.497Z,4.60
2017-09-03T17:29:23.958Z,5.00
2017-09-03T17:31:51.420Z,4.67
2017-09-03T17:34:18.981Z,4.20
2017-09-03T17:39:58.078Z,5.33
2017-09-03T17:42:25.553Z,4.60
2017-09-03T17:44:53.011Z,4.33
2017-09-03T17:47:20.455Z,4.20
2017-09-03T17:49:47.921Z,4.20
2017-09-03T17:52:15.369Z,3.70
2017-09-03T17:54:42.849Z,3.90
2017-09-03T17:57:11.066Z,3.50
2017-09-03T17:59:38.517Z,4.00
2017-09-03T18:02:06.005Z,3.40
2017-09-03T18:04:38.139Z,4.00
2017-09-03T18:07:05.614Z,3.57
2017-09-03T18:09:33.178Z,4.20
2017-09-03T18:12:00.737Z,3.60
2017-09-03T18:14:28.332Z,4.13
2017-09-03T18:16:55.805Z,3.70
2017-09-03T18:19:24.112Z,3.30
2017-09-03T18:21:51.598Z,4.50
2017-09-03T18:24:19.064Z,3.70
2017-09-03T18:26:46.561Z,3.70
2017-09-03T18:29:14.834Z,3.57
2017-09-03T18:31:42.285Z,4.60
2017-09-03T18:34:09.736Z,4.47
2017-09-03T18:36:37.793Z,3.87
2017-09-03T18:39:07.732Z,3.70
2017-09-03T18:41:35.202Z,3.90
2017-09-03T18:44:04.595Z,4.00
2017-09-03T18:46:32.565Z,3.70
2017-09-03T18:49:00.294Z,4.47
2017-09-03T18:51:38.661Z,4.00
2017-09-03T18:54:08.685Z,4.57
2017-09-03T18:56:36.163Z,4.50
2017-09-03T18:59:07.181Z,5.20
2017-09-03T19:01:34.683Z,5.00
2017-09-03T19:04:02.177Z,5.93
2017-09-03T19:06:30.107Z,6.37
2017-09-03T19:08:57.697Z,6.33
2017-09-03T19:11:25.185Z,6.20
2017-09-03T19:13:52.744Z,6.70
2017-09-03T19:16:20.240Z,6.93
2017-09-03T19:18:47.725Z,5.60
2017-09-03T19:21:15.193Z,5.70
2017-09-03T19:23:42.760Z,5.10
2017-09-03T19:26:10.247Z,5.03
2017-09-03T19:28:37.734Z,4.70
2017-09-03T19:31:05.328Z,5.00
2017-09-03T19:33:32.797Z,5.03
2017-09-03T19:36:00.275Z,5.20
2017-09-03T19:38:27.816Z,5.33
2017-09-03T19:40:56.040Z,6.40
2017-09-03T19:43:23.549Z,6.47
2017-09-03T19:45:51.002Z,5.93
2017-09-03T19:48:18.461Z,7.03
2017-09-03T19:50:45.937Z,6.20
2017-09-03T19:53:13.390Z,5.93
2017-09-03T19:55:41.663Z,6.10
2017-09-03T19:58:09.128Z,5.40
2017-09-03T20:00:36.605Z,6.57
2017-09-03T20:03:04.053Z,4.67
2017-09-03T20:05:31.578Z,5.57
2017-09-03T20:07:59.165Z,5.50
2017-09-03T20:10:26.628Z,5.83
2017-09-03T20:12:54.158Z,6.20
2017-09-03T20:15:21.633Z,5.93
2017-09-03T20:17:49.097Z,6.50
2017-09-03T20:20:16.545Z,6.00
2017-09-03T20:22:44.038Z,6.87
2017-09-03T20:25:11.490Z,6.40
2017-09-03T20:27:38.989Z,6.80
2017-09-03T20:30:06.516Z,7.57
2017-09-03T20:32:34.081Z,8.60
2017-09-03T20:35:01.570Z,9.13
2017-09-03T20:37:29.022Z,8.70
2017-09-03T20:39:56.494Z,8.87
2017-09-03T20:42:23.997Z,9.73
2017-09-03T20:44:51.444Z,8.53
2017-09-03T20:47:19.661Z,9.17
2017-09-03T20:49:47.137Z,10.57
2017-09-03T20:52:14.636Z,9.80
2017-09-03T20:54:42.134Z,9.67
2017-09-03T20:57:09.594Z,8.47
2017-09-03T20:59:37.067Z,9.77
2017-09-03T21:02:04.557Z,10.00
2017-09-03T21:04:32.018Z,9.63
2017-09-03T21:06:59.470Z,8.30
2017-09-03T21:09:26.946Z,8.80
2017-09-03T21:11:54.418Z,9.23
2017-09-03T21:14:21.883Z,10.43
2017-09-03T21:16:49.361Z,9.67
2017-09-03T21:19:16.850Z,10.37
2017-09-03T21:21:44.317Z,9.63
2017-09-03T21:24:11.768Z,10.07
2017-09-03T21:26:39.738Z,9.87
2017-09-03T21:29:07.193Z,10.50
2017-09-03T21:31:34.644Z,9.00
2017-09-03T21:34:02.135Z,9.60
2017-09-03T21:36:29.633Z,10.40
2017-09-03T21:38:57.091Z,10.70
2017-09-03T21:41:24.552Z,10.90
2017-09-03T21:43:52.029Z,10.10
2017-09-03T21:46:19.506Z,10.40
2017-09-03T21:48:46.972Z,10.87
2017-09-03T21:51:14.445Z,12.27
2017-09-03T21:53:42.673Z,11.50
2017-09-03T21:56:10.170Z,10.73
2017-09-03T21:58:37.943Z,12.37
2017-09-03T22:01:05.394Z,10.80
2017-09-03T22:03:32.871Z,12.40
2017-09-03T22:06:00.328Z,11.70
2017-09-03T22:08:27.904Z,10.90
2017-09-03T22:10:55.371Z,11.87
2017-09-03T22:13:22.833Z,12.20
2017-09-03T22:15:50.328Z,11.93
2017-09-03T22:18:17.785Z,12.10
2017-09-03T22:20:45.250Z,12.20
2017-09-03T22:23:12.725Z,12.10
2017-09-03T22:25:40.181Z,10.87
2017-09-03T22:28:07.682Z,12.10
2017-09-03T22:30:35.140Z,11.87
2017-09-03T22:33:02.599Z,11.33
2017-09-03T22:35:30.170Z,11.63
2017-09-03T22:37:57.659Z,11.17
2017-09-03T22:40:25.113Z,11.50
2017-09-03T22:42:52.585Z,11.73
2017-09-03T22:45:20.041Z,10.53
2017-09-03T22:47:47.522Z,11.00
2017-09-03T22:50:15.065Z,12.07
2017-09-03T22:52:42.526Z,9.87
2017-09-03T22:55:09.997Z,10.87
2017-09-03T22:57:37.448Z,10.77
2017-09-03T23:00:05.701Z,12.10
2017-09-03T23:02:33.156Z,12.37
2017-09-03T23:05:00.623Z,12.77
2017-09-03T23:07:28.104Z,13.27
2017-09-03T23:09:55.562Z,14.20
2017-09-03T23:12:23.022Z,14.80
2017-09-03T23:14:51.266Z,13.30
2017-09-03T23:17:18.716Z,15.20
2017-09-03T23:19:46.217Z,14.00
2017-09-03T23:22:13.676Z,15.37
2017-09-03T23:24:41.162Z,14.63
2017-09-03T23:27:08.637Z,14.90
2017-09-03T23:29:36.121Z,14.07
2017-09-03T23:32:03.573Z,14.47
2017-09-03T23:34:31.031Z,14.10
2017-09-03T23:36:58.528Z,14.20
2017-09-03T23:39:25.995Z,13.10
2017-09-03T23:41:53.450Z,14.80
2017-09-03T23:44:20.925Z,16.17
2017-09-03T23:46:48.406Z,18.30
2017-09-03T23:49:15.929Z,18.20
2017-09-03T23:51:43.377Z,16.70
2017-09-03T23:54:10.837Z,19.00
2017-09-03T23:56:38.328Z,18.30
2017-09-03T23:59:05.785Z,19.10
